sensor_id;sensor_type;location;lat;lon;timestamp;pressure;altitude;pressure_sealevel;temperature;humidity
69219;BME280;56232;53.384;-2.732;2024-01-16T00:00:10;100814.21;;;1.32;32.23
69219;BME280;56232;53.384;-2.732;2024-01-16T00:02:34;100813.54;;;1.54;32.15
69219;BME280;56232;53.384;-2.732;2024-01-16T00:05:00;100814.93;;;1.13;32.02
69219;BME280;56232;53.384;-2.732;2024-01-16T00:07:25;100812.25;;;1.86;31.92
69219;BME280;56232;53.384;-2.732;2024-01-16T00:09:51;100808.62;;;1.99;31.94
69219;BME280;56232;53.384;-2.732;2024-01-16T00:12:16;100807.82;;;1.56;31.87
69219;BME280;56232;53.384;-2.732;2024-01-16T00:14:41;100807.66;;;1.24;31.81
69219;BME280;56232;53.384;-2.732;2024-01-16T00:17:07;100799.19;;;1.42;31.72
69219;BME280;56232;53.384;-2.732;2024-01-16T00:19:32;100796.15;;;2.04;31.66
69219;BME280;56232;53.384;-2.732;2024-01-16T00:21:58;100791.29;;;1.63;31.62
69219;BME280;56232;53.384;-2.732;2024-01-16T00:24:23;100790.23;;;1.66;31.58
69219;BME280;56232;53.384;-2.732;2024-01-16T00:26:48;100790.21;;;1.63;31.58
69219;BME280;56232;53.384;-2.732;2024-01-16T00:29:14;100791.07;;;1.62;31.60
69219;BME280;56232;53.384;-2.732;2024-01-16T00:31:39;100788.16;;;1.57;31.64
69219;BME280;56232;53.384;-2.732;2024-01-16T00:34:04;100781.76;;;1.97;31.68
69219;BME280;56232;53.384;-2.732;2024-01-16T00:36:30;100780.99;;;1.42;31.73
69219;BME280;56232;53.384;-2.732;2024-01-16T00:38:54;100775.26;;;1.41;31.83
69219;BME280;56232;53.384;-2.732;2024-01-16T00:41:20;100771.77;;;1.38;31.84
69219;BME280;56232;53.384;-2.732;2024-01-16T00:43:45;100770.52;;;1.35;31.92
69219;BME280;56232;53.384;-2.732;2024-01-16T00:46:11;100768.46;;;1.80;31.96
69219;BME280;56232;53.384;-2.732;2024-01-16T00:48:36;100766.72;;;1.76;32.04
69219;BME280;56232;53.384;-2.732;2024-01-16T00:51:02;100764.76;;;1.31;32.08
69219;BME280;56232;53.384;-2.732;2024-01-16T00:53:27;100757.11;;;1.46;32.05
69219;BME280;56232;53.384;-2.732;2024-01-16T00:55:52;100753.53;;;1.62;32.06
69219;BME280;56232;53.384;-2.732;2024-01-16T00:58:17;100753.41;;;1.80;32.02
69219;BME280;56232;53.384;-2.732;2024-01-16T01:00:43;100751.93;;;1.93;31.98
69219;BME280;56232;53.384;-2.732;2024-01-16T01:03:08;100752.21;;;1.52;32.00
69219;BME280;56232;53.384;-2.732;2024-01-16T01:05:34;100753.29;;;2.10;32.02
69219;BME280;56232;53.384;-2.732;2024-01-16T01:07:59;100748.21;;;2.14;32.04
69219;BME280;56232;53.384;-2.732;2024-01-16T01:10:24;100750.41;;;2.17;32.14
69219;BME280;56232;53.384;-2.732;2024-01-16T01:12:50;100753.08;;;2.21;32.21
69219;BME280;56232;53.384;-2.732;2024-01-16T01:15:16;100742.61;;;2.80;32.20
69219;BME280;56232;53.384;-2.732;2024-01-16T01:17:41;100743.66;;;2.35;32.24
69219;BME280;56232;53.384;-2.732;2024-01-16T01:20:08;100740.20;;;2.44;32.34
69219;BME280;56232;53.384;-2.732;2024-01-16T01:22:31;100740.21;;;2.56;32.33
69219;BME280;56232;53.384;-2.732;2024-01-16T01:24:56;100742.62;;;2.63;32.34
69219;BME280;56232;53.384;-2.732;2024-01-16T01:27:22;100740.76;;;2.66;32.41
69219;BME280;56232;53.384;-2.732;2024-01-16T01:29:47;100738.56;;;2.23;32.48
69219;BME280;56232;53.384;-2.732;2024-01-16T01:32:13;100730.11;;;2.76;32.53
69219;BME280;56232;53.384;-2.732;2024-01-16T01:34:41;100728.31;;;1.77;32.59
69219;BME280;56232;53.384;-2.732;2024-01-16T01:37:04;100724.77;;;1.84;32.59
69219;BME280;56232;53.384;-2.732;2024-01-16T01:39:29;100722.82;;;2.96;32.62
69219;BME280;56232;53.384;-2.732;2024-01-16T01:41:55;100723.62;;;1.90;32.70
69219;BME280;56232;53.384;-2.732;2024-01-16T01:44:20;100721.02;;;1.93;32.75
69219;BME280;56232;53.384;-2.732;2024-01-16T01:46:45;100715.21;;;2.48;32.94
69219;BME280;56232;53.384;-2.732;2024-01-16T01:49:12;100713.33;;;2.45;33.09
69219;BME280;56232;53.384;-2.732;2024-01-16T01:51:37;100712.59;;;2.54;33.38
69219;BME280;56232;53.384;-2.732;2024-01-16T01:54:02;100711.14;;;2.07;33.51
69219;BME280;56232;53.384;-2.732;2024-01-16T01:56:28;100711.14;;;2.22;33.65
69219;BME280;56232;53.384;-2.732;2024-01-16T01:58:56;100710.23;;;2.30;33.78
69219;BME280;56232;53.384;-2.732;2024-01-16T02:01:21;100712.06;;;2.40;33.95
69219;BME280;56232;53.384;-2.732;2024-01-16T02:03:45;100704.95;;;3.03;33.99
69219;BME280;56232;53.384;-2.732;2024-01-16T02:06:11;100702.15;;;3.43;33.77
69219;BME280;56232;53.384;-2.732;2024-01-16T02:08:36;100699.75;;;3.46;34.13
69219;BME280;56232;53.384;-2.732;2024-01-16T02:11:02;100696.83;;;2.99;33.93
69219;BME280;56232;53.384;-2.732;2024-01-16T02:13:28;100692.83;;;2.29;34.14
69219;BME280;56232;53.384;-2.732;2024-01-16T02:15:53;100687.18;;;2.79;34.57
69219;BME280;56232;53.384;-2.732;2024-01-16T02:18:18;100686.63;;;2.82;34.77
69219;BME280;56232;53.384;-2.732;2024-01-16T02:20:45;100685.11;;;3.36;34.72
69219;BME280;56232;53.384;-2.732;2024-01-16T02:23:10;100684.77;;;2.87;34.60
69219;BME280;56232;53.384;-2.732;2024-01-16T02:25:35;100681.45;;;2.30;34.87
69219;BME280;56232;53.384;-2.732;2024-01-16T02:30:26;100676.62;;;2.45;34.98
69219;BME280;56232;53.384;-2.732;2024-01-16T02:32:51;100674.08;;;2.51;35.03
69219;BME280;56232;53.384;-2.732;2024-01-16T02:35:17;100674.05;;;3.17;35.34
69219;BME280;56232;53.384;-2.732;2024-01-16T02:37:42;100673.23;;;2.66;35.02
69219;BME280;56232;53.384;-2.732;2024-01-16T02:40:08;100670.86;;;2.63;34.37
69219;BME280;56232;53.384;-2.732;2024-01-16T02:42:33;100671.91;;;2.61;34.76
69219;BME280;56232;53.384;-2.732;2024-01-16T02:44:58;100672.64;;;2.74;34.84
69219;BME280;56232;53.384;-2.732;2024-01-16T02:47:23;100674.76;;;2.86;35.17
69219;BME280;56232;53.384;-2.732;2024-01-16T02:49:49;100673.78;;;3.56;35.38
69219;BME280;56232;53.384;-2.732;2024-01-16T02:52:16;100673.66;;;3.05;35.41
69219;BME280;56232;53.384;-2.732;2024-01-16T02:54:40;100671.17;;;3.12;35.50
69219;BME280;56232;53.384;-2.732;2024-01-16T02:57:05;100669.40;;;3.22;35.01
69219;BME280;56232;53.384;-2.732;2024-01-16T02:59:31;100665.18;;;3.20;35.29
69219;BME280;56232;53.384;-2.732;2024-01-16T03:01:56;100664.46;;;3.27;35.32
69219;BME280;56232;53.384;-2.732;2024-01-16T03:04:22;100666.89;;;2.78;35.12
69219;BME280;56232;53.384;-2.732;2024-01-16T03:06:47;100668.78;;;3.31;35.29
69219;BME280;56232;53.384;-2.732;2024-01-16T03:09:13;100668.48;;;3.31;35.38
69219;BME280;56232;53.384;-2.732;2024-01-16T03:11:37;100663.61;;;3.36;35.24
69219;BME280;56232;53.384;-2.732;2024-01-16T03:14:05;100665.65;;;3.31;35.55
69219;BME280;56232;53.384;-2.732;2024-01-16T03:16:28;100663.22;;;3.37;35.80
69219;BME280;56232;53.384;-2.732;2024-01-16T03:18:54;100661.39;;;3.51;35.91
69219;BME280;56232;53.384;-2.732;2024-01-16T03:21:19;100655.23;;;3.16;36.04
69219;BME280;56232;53.384;-2.732;2024-01-16T03:23:45;100650.15;;;3.28;36.02
69219;BME280;56232;53.384;-2.732;2024-01-16T03:26:12;100644.03;;;3.33;36.03
69219;BME280;56232;53.384;-2.732;2024-01-16T03:28:36;100642.17;;;3.91;35.83
69219;BME280;56232;53.384;-2.732;2024-01-16T03:31:01;100637.37;;;3.41;35.88
69219;BME280;56232;53.384;-2.732;2024-01-16T03:33:26;100633.80;;;3.92;36.01
69219;BME280;56232;53.384;-2.732;2024-01-16T03:35:52;100629.02;;;3.97;36.08
69219;BME280;56232;53.384;-2.732;2024-01-16T03:38:17;100624.48;;;3.97;36.12
69219;BME280;56232;53.384;-2.732;2024-01-16T03:40:42;100619.36;;;3.48;36.16
69219;BME280;56232;53.384;-2.732;2024-01-16T03:43:08;100615.75;;;3.37;36.24
69219;BME280;56232;53.384;-2.732;2024-01-16T03:45:34;100613.71;;;3.82;36.31
69219;BME280;56232;53.384;-2.732;2024-01-16T03:48:00;100615.32;;;3.79;36.36
69219;BME280;56232;53.384;-2.732;2024-01-16T03:50:25;100611.03;;;3.86;36.39
69219;BME280;56232;53.384;-2.732;2024-01-16T03:52:51;100610.77;;;3.89;36.21
69219;BME280;56232;53.384;-2.732;2024-01-16T03:55:17;100606.65;;;3.92;36.29
69219;BME280;56232;53.384;-2.732;2024-01-16T03:57:41;100603.02;;;3.41;36.22
69219;BME280;56232;53.384;-2.732;2024-01-16T04:00:08;100604.41;;;2.99;36.20
69219;BME280;56232;53.384;-2.732;2024-01-16T04:02:32;100605.29;;;4.03;36.26
69219;BME280;56232;53.384;-2.732;2024-01-16T04:04:58;100604.79;;;3.57;36.09
69219;BME280;56232;53.384;-2.732;2024-01-16T04:07:23;100601.42;;;3.48;35.87
69219;BME280;56232;53.384;-2.732;2024-01-16T04:09:49;100598.26;;;3.36;36.02
69219;BME280;56232;53.384;-2.732;2024-01-16T04:12:15;100597.90;;;3.76;35.94
69219;BME280;56232;53.384;-2.732;2024-01-16T04:14:40;100596.93;;;3.72;36.05
69219;BME280;56232;53.384;-2.732;2024-01-16T04:17:05;100591.90;;;3.67;35.78
69219;BME280;56232;53.384;-2.732;2024-01-16T04:19:31;100583.66;;;3.58;35.64
69219;BME280;56232;53.384;-2.732;2024-01-16T04:21:56;100578.94;;;3.44;35.56
69219;BME280;56232;53.384;-2.732;2024-01-16T04:24:22;100575.13;;;2.90;36.00
69219;BME280;56232;53.384;-2.732;2024-01-16T04:26:47;100570.74;;;3.47;36.07
69219;BME280;56232;53.384;-2.732;2024-01-16T04:29:13;100573.23;;;3.44;36.16
69219;BME280;56232;53.384;-2.732;2024-01-16T04:31:39;100567.99;;;3.41;36.17
69219;BME280;56232;53.384;-2.732;2024-01-16T04:34:03;100566.96;;;3.50;36.31
69219;BME280;56232;53.384;-2.732;2024-01-16T04:36:29;100563.04;;;3.53;36.25
69219;BME280;56232;53.384;-2.732;2024-01-16T04:38:55;100556.75;;;3.50;35.95
69219;BME280;56232;53.384;-2.732;2024-01-16T04:41:21;100551.52;;;3.50;36.20
69219;BME280;56232;53.384;-2.732;2024-01-16T04:43:46;100552.15;;;3.60;36.26
69219;BME280;56232;53.384;-2.732;2024-01-16T04:46:14;100547.76;;;3.62;36.06
69219;BME280;56232;53.384;-2.732;2024-01-16T04:48:38;100544.34;;;3.43;35.92
69219;BME280;56232;53.384;-2.732;2024-01-16T04:51:04;100542.33;;;3.35;36.07
69219;BME280;56232;53.384;-2.732;2024-01-16T04:53:29;100538.52;;;3.39;36.08
69219;BME280;56232;53.384;-2.732;2024-01-16T04:55:55;100543.26;;;3.44;35.72
69219;BME280;56232;53.384;-2.732;2024-01-16T04:58:20;100541.54;;;3.24;35.53
69219;BME280;56232;53.384;-2.732;2024-01-16T05:00:45;100540.07;;;3.74;35.77
69219;BME280;56232;53.384;-2.732;2024-01-16T05:03:11;100538.50;;;3.61;35.54
69219;BME280;56232;53.384;-2.732;2024-01-16T05:05:37;100532.80;;;3.46;36.06
69219;BME280;56232;53.384;-2.732;2024-01-16T05:08:03;100537.03;;;2.88;36.04
69219;BME280;56232;53.384;-2.732;2024-01-16T05:10:28;100534.23;;;2.92;36.19
69219;BME280;56232;53.384;-2.732;2024-01-16T05:12:54;100534.89;;;3.05;36.14
69219;BME280;56232;53.384;-2.732;2024-01-16T05:15:19;100533.26;;;3.04;36.18
69219;BME280;56232;53.384;-2.732;2024-01-16T05:17:45;100528.23;;;2.43;36.15
69219;BME280;56232;53.384;-2.732;2024-01-16T05:20:10;100527.39;;;3.02;36.23
69219;BME280;56232;53.384;-2.732;2024-01-16T05:22:35;100525.41;;;3.76;36.26
69219;BME280;56232;53.384;-2.732;2024-01-16T05:25:01;100523.00;;;3.22;35.74
69219;BME280;56232;53.384;-2.732;2024-01-16T05:27:26;100519.09;;;3.11;35.76
69219;BME280;56232;53.384;-2.732;2024-01-16T05:29:51;100513.11;;;3.12;35.97
69219;BME280;56232;53.384;-2.732;2024-01-16T05:32:17;100505.83;;;3.10;35.84
69219;BME280;56232;53.384;-2.732;2024-01-16T05:34:43;100501.23;;;2.99;36.01
69219;BME280;56232;53.384;-2.732;2024-01-16T05:37:09;100498.96;;;3.07;36.13
69219;BME280;56232;53.384;-2.732;2024-01-16T05:39:34;100500.52;;;3.13;36.00
69219;BME280;56232;53.384;-2.732;2024-01-16T05:42:00;100497.29;;;3.09;36.03
69219;BME280;56232;53.384;-2.732;2024-01-16T05:44:26;100496.94;;;3.12;36.00
69219;BME280;56232;53.384;-2.732;2024-01-16T05:46:51;100493.55;;;3.08;36.10
69219;BME280;56232;53.384;-2.732;2024-01-16T05:49:17;100482.06;;;3.62;36.20
69219;BME280;56232;53.384;-2.732;2024-01-16T05:51:41;100477.06;;;3.08;35.95
69219;BME280;56232;53.384;-2.732;2024-01-16T05:54:07;100475.22;;;3.03;36.21
69219;BME280;56232;53.384;-2.732;2024-01-16T05:56:33;100471.26;;;2.91;35.96
69219;BME280;56232;53.384;-2.732;2024-01-16T05:58:59;100470.36;;;3.87;36.01
69219;BME280;56232;53.384;-2.732;2024-01-16T06:01:24;100465.85;;;2.66;36.33
69219;BME280;56232;53.384;-2.732;2024-01-16T06:03:49;100460.02;;;2.72;36.41
69219;BME280;56232;53.384;-2.732;2024-01-16T06:06:16;100453.55;;;2.74;36.56
69219;BME280;56232;53.384;-2.732;2024-01-16T06:08:40;100451.08;;;2.90;36.86
69219;BME280;56232;53.384;-2.732;2024-01-16T06:11:06;100444.80;;;3.01;36.78
69219;BME280;56232;53.384;-2.732;2024-01-16T06:13:31;100446.75;;;3.11;36.78
69219;BME280;56232;53.384;-2.732;2024-01-16T06:15:57;100445.77;;;3.21;36.85
69219;BME280;56232;53.384;-2.732;2024-01-16T06:18:22;100446.70;;;3.25;36.66
69219;BME280;56232;53.384;-2.732;2024-01-16T06:20:48;100441.28;;;3.35;36.43
69219;BME280;56232;53.384;-2.732;2024-01-16T06:23:13;100439.54;;;3.27;36.16
69219;BME280;56232;53.384;-2.732;2024-01-16T06:25:39;100438.51;;;2.62;36.44
69219;BME280;56232;53.384;-2.732;2024-01-16T06:28:04;100436.68;;;3.16;36.40
69219;BME280;56232;53.384;-2.732;2024-01-16T06:30:29;100439.30;;;3.02;36.00
69219;BME280;56232;53.384;-2.732;2024-01-16T06:32:54;100434.76;;;2.93;36.30
69219;BME280;56232;53.384;-2.732;2024-01-16T06:35:20;100426.80;;;2.89;36.77
69219;BME280;56232;53.384;-2.732;2024-01-16T06:37:45;100424.48;;;2.85;36.86
69219;BME280;56232;53.384;-2.732;2024-01-16T06:40:11;100420.76;;;3.44;36.88
69219;BME280;56232;53.384;-2.732;2024-01-16T06:42:36;100418.05;;;2.86;36.60
69219;BME280;56232;53.384;-2.732;2024-01-16T06:45:02;100414.50;;;2.97;36.66
69219;BME280;56232;53.384;-2.732;2024-01-16T06:47:26;100410.81;;;3.01;36.59
69219;BME280;56232;53.384;-2.732;2024-01-16T06:49:52;100407.69;;;3.02;36.64
69219;BME280;56232;53.384;-2.732;2024-01-16T06:52:19;100407.79;;;3.03;36.58
69219;BME280;56232;53.384;-2.732;2024-01-16T06:54:44;100406.63;;;3.04;36.60
69219;BME280;56232;53.384;-2.732;2024-01-16T06:57:09;100401.99;;;3.14;36.79
69219;BME280;56232;53.384;-2.732;2024-01-16T06:59:34;100403.86;;;3.20;36.56
69219;BME280;56232;53.384;-2.732;2024-01-16T07:02:00;100399.80;;;3.11;36.69
69219;BME280;56232;53.384;-2.732;2024-01-16T07:04:25;100397.42;;;3.77;36.53
69219;BME280;56232;53.384;-2.732;2024-01-16T07:06:51;100398.51;;;3.20;36.62
69219;BME280;56232;53.384;-2.732;2024-01-16T07:09:17;100390.96;;;3.21;36.63
69219;BME280;56232;53.384;-2.732;2024-01-16T07:11:42;100390.54;;;3.24;36.87
69219;BME280;56232;53.384;-2.732;2024-01-16T07:14:07;100382.95;;;3.26;36.77
69219;BME280;56232;53.384;-2.732;2024-01-16T07:16:33;100378.24;;;3.24;36.67
69219;BME280;56232;53.384;-2.732;2024-01-16T07:18:58;100376.51;;;2.79;36.80
69219;BME280;56232;53.384;-2.732;2024-01-16T07:21:23;100381.35;;;2.86;36.85
69219;BME280;56232;53.384;-2.732;2024-01-16T07:23:49;100380.63;;;3.39;36.55
69219;BME280;56232;53.384;-2.732;2024-01-16T07:26:16;100371.41;;;2.45;36.65
69219;BME280;56232;53.384;-2.732;2024-01-16T07:28:40;100368.82;;;2.97;36.93
69219;BME280;56232;53.384;-2.732;2024-01-16T07:31:06;100366.70;;;3.56;36.97
69219;BME280;56232;53.384;-2.732;2024-01-16T07:33:31;100359.55;;;3.16;37.01
69219;BME280;56232;53.384;-2.732;2024-01-16T07:35:57;100357.79;;;3.76;37.09
69219;BME280;56232;53.384;-2.732;2024-01-16T07:38:22;100358.04;;;3.39;37.14
69219;BME280;56232;53.384;-2.732;2024-01-16T07:40:48;100358.98;;;4.06;37.14
69219;BME280;56232;53.384;-2.732;2024-01-16T07:43:13;100358.72;;;4.19;36.76
69219;BME280;56232;53.384;-2.732;2024-01-16T07:45:38;100359.69;;;3.70;36.75
69219;BME280;56232;53.384;-2.732;2024-01-16T07:48:04;100364.06;;;4.18;36.70
69219;BME280;56232;53.384;-2.732;2024-01-16T07:50:29;100362.86;;;3.11;36.61
69219;BME280;56232;53.384;-2.732;2024-01-16T07:52:54;100355.15;;;3.54;36.68
69219;BME280;56232;53.384;-2.732;2024-01-16T07:55:20;100358.55;;;3.34;36.44
69219;BME280;56232;53.384;-2.732;2024-01-16T07:57:46;100354.90;;;3.72;36.75
69219;BME280;56232;53.384;-2.732;2024-01-16T08:00:12;100355.22;;;3.22;36.90
69219;BME280;56232;53.384;-2.732;2024-01-16T08:02:38;100348.85;;;2.76;36.80
69219;BME280;56232;53.384;-2.732;2024-01-16T08:05:04;100353.04;;;3.32;36.77
69219;BME280;56232;53.384;-2.732;2024-01-16T08:07:29;100345.52;;;3.88;36.84
69219;BME280;56232;53.384;-2.732;2024-01-16T08:09:54;100341.54;;;3.86;36.69
69219;BME280;56232;53.384;-2.732;2024-01-16T08:12:20;100339.56;;;3.74;36.27
69219;BME280;56232;53.384;-2.732;2024-01-16T08:14:45;100335.66;;;3.08;36.56
69219;BME280;56232;53.384;-2.732;2024-01-16T08:17:10;100335.99;;;3.54;36.40
69219;BME280;56232;53.384;-2.732;2024-01-16T08:19:36;100332.51;;;2.99;36.63
69219;BME280;56232;53.384;-2.732;2024-01-16T08:22:01;100329.05;;;3.54;36.71
69219;BME280;56232;53.384;-2.732;2024-01-16T08:24:26;100323.34;;;3.08;36.47
69219;BME280;56232;53.384;-2.732;2024-01-16T08:26:52;100324.11;;;3.01;36.40
69219;BME280;56232;53.384;-2.732;2024-01-16T08:29:17;100324.27;;;3.52;36.49
69219;BME280;56232;53.384;-2.732;2024-01-16T08:31:43;100323.16;;;3.46;36.14
69219;BME280;56232;53.384;-2.732;2024-01-16T08:34:08;100314.55;;;2.84;36.22
69219;BME280;56232;53.384;-2.732;2024-01-16T08:36:34;100314.92;;;3.23;36.04
69219;BME280;56232;53.384;-2.732;2024-01-16T08:38:59;100315.13;;;3.06;35.98
69219;BME280;56232;53.384;-2.732;2024-01-16T08:41:25;100312.82;;;3.00;36.41
69219;BME280;56232;53.384;-2.732;2024-01-16T08:43:50;100309.71;;;3.01;36.39
69219;BME280;56232;53.384;-2.732;2024-01-16T08:46:17;100308.36;;;3.01;36.35
69219;BME280;56232;53.384;-2.732;2024-01-16T08:48:41;100304.20;;;3.03;36.36
69219;BME280;56232;53.384;-2.732;2024-01-16T08:51:08;100300.40;;;3.02;36.34
69219;BME280;56232;53.384;-2.732;2024-01-16T08:53:32;100297.77;;;3.12;36.49
69219;BME280;56232;53.384;-2.732;2024-01-16T08:55:58;100295.02;;;3.27;36.44
69219;BME280;56232;53.384;-2.732;2024-01-16T08:58:23;100293.75;;;3.48;36.41
69219;BME280;56232;53.384;-2.732;2024-01-16T09:00:48;100291.10;;;3.52;36.05
69219;BME280;56232;53.384;-2.732;2024-01-16T09:03:14;100284.52;;;3.28;36.27
69219;BME280;56232;53.384;-2.732;2024-01-16T09:05:39;100281.09;;;3.12;36.39
69219;BME280;56232;53.384;-2.732;2024-01-16T09:08:05;100281.52;;;2.96;36.30
69219;BME280;56232;53.384;-2.732;2024-01-16T09:10:30;100277.04;;;2.66;36.42
69219;BME280;56232;53.384;-2.732;2024-01-16T09:12:55;100270.63;;;2.40;36.55
69219;BME280;56232;53.384;-2.732;2024-01-16T09:15:26;100267.88;;;2.77;36.76
69219;BME280;56232;53.384;-2.732;2024-01-16T09:17:46;100261.76;;;2.59;36.85
69219;BME280;56232;53.384;-2.732;2024-01-16T09:20:12;100260.67;;;1.96;36.95
69219;BME280;56232;53.384;-2.732;2024-01-16T09:22:37;100255.66;;;2.04;36.97
69219;BME280;56232;53.384;-2.732;2024-01-16T09:25:03;100254.64;;;2.06;36.85
69219;BME280;56232;53.384;-2.732;2024-01-16T09:27:28;100251.69;;;2.04;36.94
69219;BME280;56232;53.384;-2.732;2024-01-16T09:29:53;100253.88;;;2.18;36.96
69219;BME280;56232;53.384;-2.732;2024-01-16T09:32:18;100258.58;;;3.00;36.96
69219;BME280;56232;53.384;-2.732;2024-01-16T09:34:44;100255.79;;;2.67;36.81
69219;BME280;56232;53.384;-2.732;2024-01-16T09:37:09;100252.27;;;2.99;36.79
69219;BME280;56232;53.384;-2.732;2024-01-16T09:39:35;100248.71;;;3.31;36.53
69219;BME280;56232;53.384;-2.732;2024-01-16T09:42:00;100246.20;;;3.68;36.16
69219;BME280;56232;53.384;-2.732;2024-01-16T09:44:26;100242.08;;;2.90;36.06
69219;BME280;56232;53.384;-2.732;2024-01-16T09:46:53;100243.57;;;3.98;36.09
69219;BME280;56232;53.384;-2.732;2024-01-16T09:49:18;100239.46;;;4.07;35.83
69219;BME280;56232;53.384;-2.732;2024-01-16T09:51:43;100233.77;;;4.02;35.95
69219;BME280;56232;53.384;-2.732;2024-01-16T09:54:09;100235.38;;;3.71;35.81
69219;BME280;56232;53.384;-2.732;2024-01-16T09:56:37;100236.56;;;3.95;35.88
69219;BME280;56232;53.384;-2.732;2024-01-16T09:59:05;100235.62;;;4.25;35.70
69219;BME280;56232;53.384;-2.732;2024-01-16T10:01:27;100234.89;;;3.39;35.55
69219;BME280;56232;53.384;-2.732;2024-01-16T10:03:52;100229.90;;;4.18;35.46
69219;BME280;56232;53.384;-2.732;2024-01-16T10:06:20;100222.49;;;4.44;35.26
69219;BME280;56232;53.384;-2.732;2024-01-16T10:08:44;100217.85;;;4.66;35.21
69219;BME280;56232;53.384;-2.732;2024-01-16T10:11:10;100218.77;;;4.93;34.99
69219;BME280;56232;53.384;-2.732;2024-01-16T10:13:36;100217.24;;;5.02;35.02
69219;BME280;56232;53.384;-2.732;2024-01-16T10:16:01;100216.70;;;4.66;35.06
69219;BME280;56232;53.384;-2.732;2024-01-16T10:18:28;100214.87;;;5.42;34.85
69219;BME280;56232;53.384;-2.732;2024-01-16T10:20:53;100206.95;;;4.39;34.80
69219;BME280;56232;53.384;-2.732;2024-01-16T10:23:23;100205.25;;;5.73;34.69
69219;BME280;56232;53.384;-2.732;2024-01-16T10:25:44;100205.91;;;4.89;34.58
69219;BME280;56232;53.384;-2.732;2024-01-16T10:28:10;100208.01;;;6.17;34.43
69219;BME280;56232;53.384;-2.732;2024-01-16T10:30:36;100211.41;;;5.18;34.27
69219;BME280;56232;53.384;-2.732;2024-01-16T10:35:27;100216.59;;;6.22;34.38
69219;BME280;56232;53.384;-2.732;2024-01-16T10:37:53;100208.39;;;6.04;34.14
69219;BME280;56232;53.384;-2.732;2024-01-16T10:40:20;100200.82;;;6.02;34.15
69219;BME280;56232;53.384;-2.732;2024-01-16T10:42:45;100197.94;;;5.94;33.95
69219;BME280;56232;53.384;-2.732;2024-01-16T10:45:17;100202.14;;;5.31;34.02
69219;BME280;56232;53.384;-2.732;2024-01-16T10:47:36;100201.41;;;5.92;34.10
69219;BME280;56232;53.384;-2.732;2024-01-16T10:50:03;100203.35;;;5.89;33.86
69219;BME280;56232;53.384;-2.732;2024-01-16T10:52:28;100195.57;;;5.34;34.25
69219;BME280;56232;53.384;-2.732;2024-01-16T10:54:57;100193.76;;;5.25;34.40
69219;BME280;56232;53.384;-2.732;2024-01-16T10:57:20;100189.56;;;4.73;34.76
69219;BME280;56232;53.384;-2.732;2024-01-16T10:59:50;100185.49;;;4.74;34.98
69219;BME280;56232;53.384;-2.732;2024-01-16T11:02:12;100180.48;;;4.50;35.48
69219;BME280;56232;53.384;-2.732;2024-01-16T11:04:37;100169.87;;;5.15;35.83
69219;BME280;56232;53.384;-2.732;2024-01-16T11:07:04;100166.14;;;5.33;35.55
69219;BME280;56232;53.384;-2.732;2024-01-16T11:09:29;100163.66;;;4.38;35.65
69219;BME280;56232;53.384;-2.732;2024-01-16T11:11:55;100159.84;;;5.17;35.80
69219;BME280;56232;53.384;-2.732;2024-01-16T11:14:21;100158.60;;;4.99;35.88
69219;BME280;56232;53.384;-2.732;2024-01-16T11:16:47;100157.27;;;5.79;35.60
69219;BME280;56232;53.384;-2.732;2024-01-16T11:19:12;100152.75;;;5.59;35.11
69219;BME280;56232;53.384;-2.732;2024-01-16T11:21:38;100149.46;;;5.83;35.16
69219;BME280;56232;53.384;-2.732;2024-01-16T11:24:04;100146.90;;;5.94;34.66
69219;BME280;56232;53.384;-2.732;2024-01-16T11:26:30;100142.71;;;5.73;34.58
69219;BME280;56232;53.384;-2.732;2024-01-16T11:28:55;100139.60;;;4.82;34.89
69219;BME280;56232;53.384;-2.732;2024-01-16T11:31:27;100133.93;;;5.33;35.09
69219;BME280;56232;53.384;-2.732;2024-01-16T11:33:47;100128.55;;;5.18;35.21
69219;BME280;56232;53.384;-2.732;2024-01-16T11:38:38;100116.84;;;5.41;35.10
69219;BME280;56232;53.384;-2.732;2024-01-16T11:41:04;100116.80;;;5.45;34.99
69219;BME280;56232;53.384;-2.732;2024-01-16T11:43:35;100110.29;;;5.36;35.23
69219;BME280;56232;53.384;-2.732;2024-01-16T11:45:55;100105.91;;;5.41;35.00
69219;BME280;56232;53.384;-2.732;2024-01-16T11:48:21;100097.92;;;5.34;35.19
69219;BME280;56232;53.384;-2.732;2024-01-16T11:50:47;100093.87;;;5.23;35.53
69219;BME280;56232;53.384;-2.732;2024-01-16T11:55:48;100083.41;;;5.13;35.72
69219;BME280;56232;53.384;-2.732;2024-01-16T11:58:18;100072.74;;;5.72;35.58
69219;BME280;56232;53.384;-2.732;2024-01-16T12:00:32;100069.17;;;6.26;35.43
69219;BME280;56232;53.384;-2.732;2024-01-16T12:02:56;100061.65;;;5.82;35.22
69219;BME280;56232;53.384;-2.732;2024-01-16T12:05:21;100058.88;;;5.61;35.25
69219;BME280;56232;53.384;-2.732;2024-01-16T12:07:48;100045.24;;;5.83;35.20
69219;BME280;56232;53.384;-2.732;2024-01-16T12:10:12;100039.78;;;6.06;35.06
69219;BME280;56232;53.384;-2.732;2024-01-16T12:12:38;100039.27;;;6.47;34.57
69219;BME280;56232;53.384;-2.732;2024-01-16T12:15:04;100033.92;;;6.29;34.46
69219;BME280;56232;53.384;-2.732;2024-01-16T12:17:29;100026.89;;;7.16;34.69
69219;BME280;56232;53.384;-2.732;2024-01-16T12:19:55;100017.99;;;6.69;34.01
69219;BME280;56232;53.384;-2.732;2024-01-16T12:22:21;100011.29;;;6.97;34.48
69219;BME280;56232;53.384;-2.732;2024-01-16T12:24:47;100003.04;;;6.13;34.60
69219;BME280;56232;53.384;-2.732;2024-01-16T12:27:13;99994.24;;;6.61;34.70
69219;BME280;56232;53.384;-2.732;2024-01-16T12:29:38;99990.18;;;6.44;34.80
69219;BME280;56232;53.384;-2.732;2024-01-16T12:32:07;99988.73;;;6.22;34.99
69219;BME280;56232;53.384;-2.732;2024-01-16T12:34:30;99981.83;;;6.09;35.10
69219;BME280;56232;53.384;-2.732;2024-01-16T12:37:04;99981.80;;;6.19;35.17
69219;BME280;56232;53.384;-2.732;2024-01-16T12:39:21;99974.42;;;6.28;34.81
69219;BME280;56232;53.384;-2.732;2024-01-16T12:41:47;99967.05;;;5.59;34.91
69219;BME280;56232;53.384;-2.732;2024-01-16T12:44:13;99965.56;;;6.15;35.00
69219;BME280;56232;53.384;-2.732;2024-01-16T12:46:39;99956.74;;;6.03;35.26
69219;BME280;56232;53.384;-2.732;2024-01-16T12:49:05;99954.49;;;6.01;35.33